Aviation Digital Data Service (ADDS)

Output produced by METARs form (0347 UTC 19 August 2019)
found at http://www.aviationweather.gov/metar/data/
 
METAR text: OTHH 190300Z 32005KT CAVOK 31/24 Q1002 NOSIG
Conditions at: OTHH (DOHA HAMAD INTL , QA) observed 0300 UTC 19 August 2019
Temperature: 31.0°C (88°F)
Dewpoint: 24.0°C (75°F) [RH = 66%]
Pressure (altimeter): 29.59 inches Hg (1002.0 mb)
Winds: from the NW (320 degrees) at 6 MPH (5 knots; 2.6 m/s)
Visibility: 6 or more miles (10+ km)
Ceiling: ceiling and visibility are OK
Clouds: unknown
Weather: no significant weather observed at this time

METAR text: OTHH 190200Z AUTO 02003KT CAVOK 31/27 Q1001 NOSIG
Conditions at: OTHH (DOHA HAMAD INTL , QA) observed 0200 UTC 19 August 2019
Temperature: 31.0°C (88°F)
Dewpoint: 27.0°C (81°F) [RH = 79%]
Pressure (altimeter): 29.56 inches Hg (1001.0 mb)
Winds: from the NNE (20 degrees) at 3 MPH (3 knots; 1.5 m/s)
Visibility: 6 or more miles (10+ km)
Ceiling: ceiling and visibility are OK
Clouds: unknown
Weather: no significant weather observed at this time

METAR text: OTHH 190100Z AUTO 31003KT CAVOK 31/26 Q1001 NOSIG
Conditions at: OTHH (DOHA HAMAD INTL , QA) observed 0100 UTC 19 August 2019
Temperature: 31.0°C (88°F)
Dewpoint: 26.0°C (79°F) [RH = 75%]
Pressure (altimeter): 29.56 inches Hg (1001.0 mb)
Winds: from the NW (310 degrees) at 3 MPH (3 knots; 1.5 m/s)
Visibility: 6 or more miles (10+ km)
Ceiling: ceiling and visibility are OK
Clouds: unknown
Weather: no significant weather observed at this time

METAR text: OTHH 190000Z AUTO 04003KT 350V100 CAVOK 32/27 Q1000 NOSIG
Conditions at: OTHH (DOHA HAMAD INTL , QA) observed 0000 UTC 19 August 2019
Temperature: 32.0°C (90°F)
Dewpoint: 27.0°C (81°F) [RH = 75%]
Pressure (altimeter): 29.53 inches Hg (1000.0 mb)
Winds: from the NE (40 degrees) at 3 MPH (3 knots; 1.5 m/s)
Visibility: 6 or more miles (10+ km)
Ceiling: ceiling and visibility are OK
Clouds: unknown
Weather: no significant weather observed at this time

METAR text: OTHH 182300Z AUTO 07003KT 010V100 CAVOK 32/27 Q1000 NOSIG
Conditions at: OTHH (DOHA HAMAD INTL , QA) observed 2300 UTC 18 August 2019
Temperature: 32.0°C (90°F)
Dewpoint: 27.0°C (81°F) [RH = 75%]
Pressure (altimeter): 29.53 inches Hg (1000.0 mb)
Winds: from the ENE (70 degrees) at 3 MPH (3 knots; 1.5 m/s)
Visibility: 6 or more miles (10+ km)
Ceiling: ceiling and visibility are OK
Clouds: unknown
Weather: no significant weather observed at this time

METAR text: OTHH 182200Z AUTO 05004KT 010V090 CAVOK 33/27 Q1000 NOSIG
Conditions at: OTHH (DOHA HAMAD INTL , QA) observed 2200 UTC 18 August 2019
Temperature: 33.0°C (91°F)
Dewpoint: 27.0°C (81°F) [RH = 71%]
Pressure (altimeter): 29.53 inches Hg (1000.0 mb)
Winds: from the NE (50 degrees) at 5 MPH (4 knots; 2.1 m/s)
Visibility: 6 or more miles (10+ km)
Ceiling: ceiling and visibility are OK
Clouds: unknown
Weather: no significant weather observed at this time

METAR text: OTHH 182100Z AUTO 03008KT CAVOK 33/26 Q1001 NOSIG
Conditions at: OTHH (DOHA HAMAD INTL , QA) observed 2100 UTC 18 August 2019
Temperature: 33.0°C (91°F)
Dewpoint: 26.0°C (79°F) [RH = 67%]
Pressure (altimeter): 29.56 inches Hg (1001.0 mb)
Winds: from the NNE (30 degrees) at 9 MPH (8 knots; 4.1 m/s)
Visibility: 6 or more miles (10+ km)
Ceiling: ceiling and visibility are OK
Clouds: unknown
Weather: no significant weather observed at this time

METAR text: OTHH 182000Z AUTO 05011KT CAVOK 34/25 Q1002 NOSIG
Conditions at: OTHH (DOHA HAMAD INTL , QA) observed 2000 UTC 18 August 2019
Temperature: 34.0°C (93°F)
Dewpoint: 25.0°C (77°F) [RH = 60%]
Pressure (altimeter): 29.59 inches Hg (1002.0 mb)
Winds: from the NE (50 degrees) at 13 MPH (11 knots; 5.7 m/s)
Visibility: 6 or more miles (10+ km)
Ceiling: ceiling and visibility are OK
Clouds: unknown
Weather: no significant weather observed at this time

METAR text: OTHH 181900Z AUTO 01012KT CAVOK 33/26 Q1002 NOSIG
Conditions at: OTHH (DOHA HAMAD INTL , QA) observed 1900 UTC 18 August 2019
Temperature: 33.0°C (91°F)
Dewpoint: 26.0°C (79°F) [RH = 67%]
Pressure (altimeter): 29.59 inches Hg (1002.0 mb)
Winds: from the N (10 degrees) at 14 MPH (12 knots; 6.2 m/s)
Visibility: 6 or more miles (10+ km)
Ceiling: ceiling and visibility are OK
Clouds: unknown
Weather: no significant weather observed at this time

METAR text: OTHH 181800Z AUTO 02015KT 330V040 CAVOK 34/26 Q1001 NOSIG
Conditions at: OTHH (DOHA HAMAD INTL , QA) observed 1800 UTC 18 August 2019
Temperature: 34.0°C (93°F)
Dewpoint: 26.0°C (79°F) [RH = 63%]
Pressure (altimeter): 29.56 inches Hg (1001.0 mb)
Winds: from the NNE (20 degrees) at 17 MPH (15 knots; 7.7 m/s)
Visibility: 6 or more miles (10+ km)
Ceiling: ceiling and visibility are OK
Clouds: unknown
Weather: no significant weather observed at this time

METAR text: OTHH 181700Z AUTO 03015KT CAVOK 34/26 Q1001 NOSIG
Conditions at: OTHH (DOHA HAMAD INTL , QA) observed 1700 UTC 18 August 2019
Temperature: 34.0°C (93°F)
Dewpoint: 26.0°C (79°F) [RH = 63%]
Pressure (altimeter): 29.56 inches Hg (1001.0 mb)
Winds: from the NNE (30 degrees) at 17 MPH (15 knots; 7.7 m/s)
Visibility: 6 or more miles (10+ km)
Ceiling: ceiling and visibility are OK
Clouds: unknown
Weather: no significant weather observed at this time

METAR text: OTHH 181600Z AUTO 03013KT CAVOK 34/27 Q1001 NOSIG
Conditions at: OTHH (DOHA HAMAD INTL , QA) observed 1600 UTC 18 August 2019
Temperature: 34.0°C (93°F)
Dewpoint: 27.0°C (81°F) [RH = 67%]
Pressure (altimeter): 29.56 inches Hg (1001.0 mb)
Winds: from the NNE (30 degrees) at 15 MPH (13 knots; 6.7 m/s)
Visibility: 6 or more miles (10+ km)
Ceiling: ceiling and visibility are OK
Clouds: unknown
Weather: no significant weather observed at this time

METAR text: OTHH 181500Z AUTO 02014KT CAVOK 34/27 Q1000 NOSIG
Conditions at: OTHH (DOHA HAMAD INTL , QA) observed 1500 UTC 18 August 2019
Temperature: 34.0°C (93°F)
Dewpoint: 27.0°C (81°F) [RH = 67%]
Pressure (altimeter): 29.53 inches Hg (1000.0 mb)
Winds: from the NNE (20 degrees) at 16 MPH (14 knots; 7.2 m/s)
Visibility: 6 or more miles (10+ km)
Ceiling: ceiling and visibility are OK
Clouds: unknown
Weather: no significant weather observed at this time

METAR text: OTHH 181400Z AUTO 04014KT CAVOK 35/27 Q0999 NOSIG
Conditions at: OTHH (DOHA HAMAD INTL , QA) observed 1400 UTC 18 August 2019
Temperature: 35.0°C (95°F)
Dewpoint: 27.0°C (81°F) [RH = 63%]
Pressure (altimeter): 29.50 inches Hg (999.0 mb)
Winds: from the NE (40 degrees) at 16 MPH (14 knots; 7.2 m/s)
Visibility: 6 or more miles (10+ km)
Ceiling: ceiling and visibility are OK
Clouds: unknown
Weather: no significant weather observed at this time

METAR text: OTHH 181300Z AUTO 04016KT CAVOK 35/26 Q0999 NOSIG
Conditions at: OTHH (DOHA HAMAD INTL , QA) observed 1300 UTC 18 August 2019
Temperature: 35.0°C (95°F)
Dewpoint: 26.0°C (79°F) [RH = 60%]
Pressure (altimeter): 29.50 inches Hg (999.0 mb)
Winds: from the NE (40 degrees) at 18 MPH (16 knots; 8.2 m/s)
Visibility: 6 or more miles (10+ km)
Ceiling: ceiling and visibility are OK
Clouds: unknown
Weather: no significant weather observed at this time

METAR text: OTHH 181200Z AUTO 02014KT CAVOK 36/26 Q0999 NOSIG
Conditions at: OTHH (DOHA HAMAD INTL , QA) observed 1200 UTC 18 August 2019
Temperature: 36.0°C (97°F)
Dewpoint: 26.0°C (79°F) [RH = 57%]
Pressure (altimeter): 29.50 inches Hg (999.0 mb)
Winds: from the NNE (20 degrees) at 16 MPH (14 knots; 7.2 m/s)
Visibility: 6 or more miles (10+ km)
Ceiling: ceiling and visibility are OK
Clouds: unknown
Weather: no significant weather observed at this time

METAR text: OTHH 181100Z 04012KT CAVOK 37/24 Q0999 NOSIG
Conditions at: OTHH (DOHA HAMAD INTL , QA) observed 1100 UTC 18 August 2019
Temperature: 37.0°C (99°F)
Dewpoint: 24.0°C (75°F) [RH = 48%]
Pressure (altimeter): 29.50 inches Hg (999.0 mb)
Winds: from the NE (40 degrees) at 14 MPH (12 knots; 6.2 m/s)
Visibility: 6 or more miles (10+ km)
Ceiling: ceiling and visibility are OK
Clouds: unknown
Weather: no significant weather observed at this time

METAR text: OTHH 181000Z 04013KT CAVOK 38/23 Q1000 NOSIG
Conditions at: OTHH (DOHA HAMAD INTL , QA) observed 1000 UTC 18 August 2019
Temperature: 38.0°C (100°F)
Dewpoint: 23.0°C (73°F) [RH = 42%]
Pressure (altimeter): 29.53 inches Hg (1000.0 mb)
Winds: from the NE (40 degrees) at 15 MPH (13 knots; 6.7 m/s)
Visibility: 6 or more miles (10+ km)
Ceiling: ceiling and visibility are OK
Clouds: unknown
Weather: no significant weather observed at this time

METAR text: OTHH 180900Z 03011KT CAVOK 39/22 Q1000 NOSIG
Conditions at: OTHH (DOHA HAMAD INTL , QA) observed 0900 UTC 18 August 2019
Temperature: 39.0°C (102°F)
Dewpoint: 22.0°C (72°F) [RH = 38%]
Pressure (altimeter): 29.53 inches Hg (1000.0 mb)
Winds: from the NNE (30 degrees) at 13 MPH (11 knots; 5.7 m/s)
Visibility: 6 or more miles (10+ km)
Ceiling: ceiling and visibility are OK
Clouds: unknown
Weather: no significant weather observed at this time

METAR text: OTHH 180800Z 02011KT CAVOK 37/22 Q1001 NOSIG
Conditions at: OTHH (DOHA HAMAD INTL , QA) observed 0800 UTC 18 August 2019
Temperature: 37.0°C (99°F)
Dewpoint: 22.0°C (72°F) [RH = 42%]
Pressure (altimeter): 29.56 inches Hg (1001.0 mb)
Winds: from the NNE (20 degrees) at 13 MPH (11 knots; 5.7 m/s)
Visibility: 6 or more miles (10+ km)
Ceiling: ceiling and visibility are OK
Clouds: unknown
Weather: no significant weather observed at this time

METAR text: OTHH 180700Z 01011KT CAVOK 37/23 Q1001 NOSIG
Conditions at: OTHH (DOHA HAMAD INTL , QA) observed 0700 UTC 18 August 2019
Temperature: 37.0°C (99°F)
Dewpoint: 23.0°C (73°F) [RH = 45%]
Pressure (altimeter): 29.56 inches Hg (1001.0 mb)
Winds: from the N (10 degrees) at 13 MPH (11 knots; 5.7 m/s)
Visibility: 6 or more miles (10+ km)
Ceiling: ceiling and visibility are OK
Clouds: unknown
Weather: no significant weather observed at this time

METAR text: OTHH 180600Z 36015KT CAVOK 37/20 Q1000 NOSIG
Conditions at: OTHH (DOHA HAMAD INTL , QA) observed 0600 UTC 18 August 2019
Temperature: 37.0°C (99°F)
Dewpoint: 20.0°C (68°F) [RH = 37%]
Pressure (altimeter): 29.53 inches Hg (1000.0 mb)
Winds: from the N (360 degrees) at 17 MPH (15 knots; 7.7 m/s)
Visibility: 6 or more miles (10+ km)
Ceiling: ceiling and visibility are OK
Clouds: unknown
Weather: no significant weather observed at this time

METAR text: OTHH 180500Z 33013KT CAVOK 36/20 Q1000 NOSIG
Conditions at: OTHH (DOHA HAMAD INTL , QA) observed 0500 UTC 18 August 2019
Temperature: 36.0°C (97°F)
Dewpoint: 20.0°C (68°F) [RH = 39%]
Pressure (altimeter): 29.53 inches Hg (1000.0 mb)
Winds: from the NNW (330 degrees) at 15 MPH (13 knots; 6.7 m/s)
Visibility: 6 or more miles (10+ km)
Ceiling: ceiling and visibility are OK
Clouds: unknown
Weather: no significant weather observed at this time

METAR text: OTHH 180400Z AUTO 32008KT CAVOK 34/20 Q1000 NOSIG
Conditions at: OTHH (DOHA HAMAD INTL , QA) observed 0400 UTC 18 August 2019
Temperature: 34.0°C (93°F)
Dewpoint: 20.0°C (68°F) [RH = 44%]
Pressure (altimeter): 29.53 inches Hg (1000.0 mb)
Winds: from the NW (320 degrees) at 9 MPH (8 knots; 4.1 m/s)
Visibility: 6 or more miles (10+ km)
Ceiling: ceiling and visibility are OK
Clouds: unknown
Weather: no significant weather observed at this time

METAR text: OTHH 180300Z AUTO 30005KT CAVOK 32/22 Q0999 NOSIG
Conditions at: OTHH (DOHA HAMAD INTL , QA) observed 0300 UTC 18 August 2019
Temperature: 32.0°C (90°F)
Dewpoint: 22.0°C (72°F) [RH = 56%]
Pressure (altimeter): 29.50 inches Hg (999.0 mb)
Winds: from the WNW (300 degrees) at 6 MPH (5 knots; 2.6 m/s)
Visibility: 6 or more miles (10+ km)
Ceiling: ceiling and visibility are OK
Clouds: unknown
Weather: no significant weather observed at this time

METAR text: OTHH 180200Z AUTO 29006KT CAVOK 32/21 Q0999 NOSIG
Conditions at: OTHH (DOHA HAMAD INTL , QA) observed 0200 UTC 18 August 2019
Temperature: 32.0°C (90°F)
Dewpoint: 21.0°C (70°F) [RH = 52%]
Pressure (altimeter): 29.50 inches Hg (999.0 mb)
Winds: from the WNW (290 degrees) at 7 MPH (6 knots; 3.1 m/s)
Visibility: 6 or more miles (10+ km)
Ceiling: ceiling and visibility are OK
Clouds: unknown
Weather: no significant weather observed at this time

METAR text: OTHH 180100Z AUTO 29009KT CAVOK 32/22 Q0998 NOSIG
Conditions at: OTHH (DOHA HAMAD INTL , QA) observed 0100 UTC 18 August 2019
Temperature: 32.0°C (90°F)
Dewpoint: 22.0°C (72°F) [RH = 56%]
Pressure (altimeter): 29.47 inches Hg (998.0 mb)
Winds: from the WNW (290 degrees) at 10 MPH (9 knots; 4.6 m/s)
Visibility: 6 or more miles (10+ km)
Ceiling: ceiling and visibility are OK
Clouds: unknown
Weather: no significant weather observed at this time

METAR text: OTHH 180000Z AUTO 30007KT CAVOK 32/22 Q0998 NOSIG
Conditions at: OTHH (DOHA HAMAD INTL , QA) observed 0000 UTC 18 August 2019
Temperature: 32.0°C (90°F)
Dewpoint: 22.0°C (72°F) [RH = 56%]
Pressure (altimeter): 29.47 inches Hg (998.0 mb)
Winds: from the WNW (300 degrees) at 8 MPH (7 knots; 3.6 m/s)
Visibility: 6 or more miles (10+ km)
Ceiling: ceiling and visibility are OK
Clouds: unknown
Weather: no significant weather observed at this time

METAR text: OTHH 172300Z AUTO 30006KT CAVOK 33/20 Q0998 NOSIG
Conditions at: OTHH (DOHA HAMAD INTL , QA) observed 2300 UTC 17 August 2019
Temperature: 33.0°C (91°F)
Dewpoint: 20.0°C (68°F) [RH = 46%]
Pressure (altimeter): 29.47 inches Hg (998.0 mb)
Winds: from the WNW (300 degrees) at 7 MPH (6 knots; 3.1 m/s)
Visibility: 6 or more miles (10+ km)
Ceiling: ceiling and visibility are OK
Clouds: unknown
Weather: no significant weather observed at this time

METAR text: OTHH 172200Z AUTO 32007KT CAVOK 32/21 Q0998 NOSIG
Conditions at: OTHH (DOHA HAMAD INTL , QA) observed 2200 UTC 17 August 2019
Temperature: 32.0°C (90°F)
Dewpoint: 21.0°C (70°F) [RH = 52%]
Pressure (altimeter): 29.47 inches Hg (998.0 mb)
Winds: from the NW (320 degrees) at 8 MPH (7 knots; 3.6 m/s)
Visibility: 6 or more miles (10+ km)
Ceiling: ceiling and visibility are OK
Clouds: unknown
Weather: no significant weather observed at this time

METAR text: OTHH 172100Z AUTO 31004KT CAVOK 32/23 Q0998 NOSIG
Conditions at: OTHH (DOHA HAMAD INTL , QA) observed 2100 UTC 17 August 2019
Temperature: 32.0°C (90°F)
Dewpoint: 23.0°C (73°F) [RH = 59%]
Pressure (altimeter): 29.47 inches Hg (998.0 mb)
Winds: from the NW (310 degrees) at 5 MPH (4 knots; 2.1 m/s)
Visibility: 6 or more miles (10+ km)
Ceiling: ceiling and visibility are OK
Clouds: unknown
Weather: no significant weather observed at this time

METAR text: OTHH 172000Z AUTO 36005KT CAVOK 32/23 Q0998 NOSIG
Conditions at: OTHH (DOHA HAMAD INTL , QA) observed 2000 UTC 17 August 2019
Temperature: 32.0°C (90°F)
Dewpoint: 23.0°C (73°F) [RH = 59%]
Pressure (altimeter): 29.47 inches Hg (998.0 mb)
Winds: from the N (360 degrees) at 6 MPH (5 knots; 2.6 m/s)
Visibility: 6 or more miles (10+ km)
Ceiling: ceiling and visibility are OK
Clouds: unknown
Weather: no significant weather observed at this time

METAR text: OTHH 171900Z AUTO 35009KT CAVOK 33/21 Q0998 NOSIG
Conditions at: OTHH (DOHA HAMAD INTL , QA) observed 1900 UTC 17 August 2019
Temperature: 33.0°C (91°F)
Dewpoint: 21.0°C (70°F) [RH = 49%]
Pressure (altimeter): 29.47 inches Hg (998.0 mb)
Winds: from the N (350 degrees) at 10 MPH (9 knots; 4.6 m/s)
Visibility: 6 or more miles (10+ km)
Ceiling: ceiling and visibility are OK
Clouds: unknown
Weather: no significant weather observed at this time

METAR text: OTHH 171800Z AUTO 34013KT CAVOK 34/21 Q0998 NOSIG
Conditions at: OTHH (DOHA HAMAD INTL , QA) observed 1800 UTC 17 August 2019
Temperature: 34.0°C (93°F)
Dewpoint: 21.0°C (70°F) [RH = 47%]
Pressure (altimeter): 29.47 inches Hg (998.0 mb)
Winds: from the NNW (340 degrees) at 15 MPH (13 knots; 6.7 m/s)
Visibility: 6 or more miles (10+ km)
Ceiling: ceiling and visibility are OK
Clouds: unknown
Weather: no significant weather observed at this time

METAR text: OTHH 171700Z AUTO 34013KT CAVOK 35/21 Q0998 NOSIG
Conditions at: OTHH (DOHA HAMAD INTL , QA) observed 1700 UTC 17 August 2019
Temperature: 35.0°C (95°F)
Dewpoint: 21.0°C (70°F) [RH = 44%]
Pressure (altimeter): 29.47 inches Hg (998.0 mb)
Winds: from the NNW (340 degrees) at 15 MPH (13 knots; 6.7 m/s)
Visibility: 6 or more miles (10+ km)
Ceiling: ceiling and visibility are OK
Clouds: unknown
Weather: no significant weather observed at this time

METAR text: OTHH 171600Z AUTO 34013KT CAVOK 36/20 Q0998 NOSIG
Conditions at: OTHH (DOHA HAMAD INTL , QA) observed 1600 UTC 17 August 2019
Temperature: 36.0°C (97°F)
Dewpoint: 20.0°C (68°F) [RH = 39%]
Pressure (altimeter): 29.47 inches Hg (998.0 mb)
Winds: from the NNW (340 degrees) at 15 MPH (13 knots; 6.7 m/s)
Visibility: 6 or more miles (10+ km)
Ceiling: ceiling and visibility are OK
Clouds: unknown
Weather: no significant weather observed at this time

Forecast for: OTHH (DOHA HAMAD INTL , QA)
Text: TAF OTHH 182301Z 1900/2006 32006KT 8000 NSC
Forecast period: 0000 to 0700 UTC 19 August 2019
Forecast type: FROM: standard forecast or significant change
Winds: from the NW (320 degrees) at 7 MPH (6 knots; 3.1 m/s)
Visibility: 5 miles (8 km)
Ceiling: unknown
Clouds: missing
Weather: no significant weather forecast for this period
Text: BECMG 1907/1909 06013KT
Forecast period: 0700 UTC 19 August 2019 to 0600 UTC 20 August 2019
Forecast type: BECOMING: Conditions expected to become as follows by 0900 UTC 19 August 2019
Winds: from the ENE (60 degrees) at 15 MPH (13 knots; 6.7 m/s)
Visibility: 5 miles (8 km)
Ceiling: unknown
Clouds: missing
Weather: no significant weather forecast for this period